createdAt,value
2022-12-08T00:01:20.339Z,100039.44
2022-12-08T00:03:47.866Z,100038.56
2022-12-08T00:06:46.926Z,100029.91
2022-12-08T00:09:23.160Z,100039.25
2022-12-08T00:12:11.469Z,100041.84
2022-12-08T00:14:39.388Z,100038.44
2022-12-08T00:17:07.717Z,100041.03
2022-12-08T00:19:34.404Z,100041.81
2022-12-08T00:22:01.738Z,100039.13
2022-12-08T00:24:35.011Z,100046.91
2022-12-08T00:27:02.314Z,100042.56
2022-12-08T00:29:29.074Z,100040.81
2022-12-08T00:31:55.809Z,100036.47
2022-12-08T00:34:22.498Z,100040.69
2022-12-08T00:36:49.161Z,100045.06
2022-12-08T00:39:17.003Z,100040.78
2022-12-08T00:42:02.299Z,100043.41
2022-12-08T00:44:29.081Z,100039.13
2022-12-08T00:46:55.805Z,100048.56
2022-12-08T00:49:22.608Z,100043.34
2022-12-08T00:51:49.524Z,100045.91
2022-12-08T00:54:16.827Z,100043.34
2022-12-08T00:56:43.475Z,100038.13
2022-12-08T00:59:10.386Z,100044.13
2022-12-08T01:01:37.230Z,100041.47
2022-12-08T01:04:06.055Z,100041.41
2022-12-08T01:06:32.749Z,100034.47
2022-12-08T01:08:59.370Z,100034.47
2022-12-08T01:11:26.030Z,100042.19
2022-12-08T01:13:53.816Z,100039.63
2022-12-08T01:16:30.508Z,100023.19
2022-12-08T01:18:58.703Z,100028.22
2022-12-08T01:21:26.467Z,100029.88
2022-12-08T01:23:53.203Z,100033.94
2022-12-08T01:26:20.259Z,100022.63
2022-12-08T01:28:47.754Z,100026.00
2022-12-08T01:31:20.329Z,100014.81
2022-12-08T01:33:47.873Z,100012.16
2022-12-08T01:36:26.396Z,100012.94
2022-12-08T01:38:54.066Z,100008.59
2022-12-08T01:41:24.459Z,100008.59
2022-12-08T01:43:58.173Z,100008.59
2022-12-08T01:46:26.069Z,100007.66
2022-12-08T01:48:57.432Z,100000.72
2022-12-08T01:51:25.420Z,100001.53
2022-12-08T01:53:52.245Z,100002.31
2022-12-08T01:56:28.309Z,100004.00
2022-12-08T01:58:55.894Z,99997.03
2022-12-08T02:01:23.152Z,100001.25
2022-12-08T02:03:59.825Z,99998.59
2022-12-08T02:06:29.779Z,99996.81
2022-12-08T02:08:57.994Z,99999.38
2022-12-08T02:11:24.681Z,100000.16
2022-12-08T02:13:53.306Z,99995.88
2022-12-08T02:16:42.153Z,99997.56
2022-12-08T02:19:31.958Z,99999.28
2022-12-08T02:22:32.744Z,100000.16
2022-12-08T02:25:04.262Z,100001.03
2022-12-08T02:27:36.717Z,99999.28
2022-12-08T02:30:20.044Z,100001.00
2022-12-08T02:33:06.149Z,99999.28
2022-12-08T02:35:50.889Z,100000.91
2022-12-08T02:38:36.566Z,100004.28
2022-12-08T02:41:26.446Z,100001.69
2022-12-08T02:44:24.638Z,100000.75
2022-12-08T02:47:12.635Z,100001.53
2022-12-08T02:49:39.254Z,99997.19
2022-12-08T02:52:25.767Z,99998.88
2022-12-08T02:55:11.847Z,99992.78
2022-12-08T02:57:41.556Z,99997.88
2022-12-08T03:00:18.715Z,99997.00
2022-12-08T03:03:12.577Z,99999.50
2022-12-08T03:06:06.757Z,100006.41
2022-12-08T03:08:55.470Z,99998.72
2022-12-08T03:11:33.745Z,100008.16
2022-12-08T03:14:03.117Z,100008.16
2022-12-08T03:16:32.262Z,100012.47
2022-12-08T03:19:05.112Z,100008.16
2022-12-08T03:21:35.199Z,100013.38
2022-12-08T03:24:06.294Z,100014.28
2022-12-08T03:26:46.208Z,100021.22
2022-12-08T03:29:13.911Z,100016.09
2022-12-08T03:31:49.064Z,100006.69
2022-12-08T03:34:17.167Z,100005.03
2022-12-08T03:36:45.698Z,100005.13
2022-12-08T03:39:12.578Z,100005.16
2022-12-08T03:41:39.202Z,100004.34
2022-12-08T03:44:05.853Z,99998.38
2022-12-08T03:46:32.630Z,99998.44
2022-12-08T03:48:59.274Z,99993.22
2022-12-08T03:51:27.359Z,99998.38
2022-12-08T03:53:54.394Z,100005.25
2022-12-08T03:56:26.122Z,100002.66
2022-12-08T03:58:53.101Z,100008.72
2022-12-08T04:01:19.908Z,100004.44
2022-12-08T04:03:46.711Z,100001.88
2022-12-08T04:06:13.476Z,99997.56
2022-12-08T04:08:42.302Z,100005.31
2022-12-08T04:11:10.050Z,100010.53
2022-12-08T04:13:40.874Z,100007.19
2022-12-08T04:16:08.806Z,100012.50
2022-12-08T04:18:35.890Z,100007.47
2022-12-08T04:21:05.572Z,100004.06
2022-12-08T04:23:34.798Z,100001.47
2022-12-08T04:26:01.470Z,99997.91
2022-12-08T04:28:29.525Z,99999.50
2022-12-08T04:30:56.509Z,99993.41
2022-12-08T04:33:23.643Z,99984.69
2022-12-08T04:35:50.439Z,99988.97
2022-12-08T04:38:17.249Z,99990.63
2022-12-08T04:40:43.946Z,99991.41
2022-12-08T04:43:13.541Z,99993.09
2022-12-08T04:45:41.752Z,99987.88
2022-12-08T04:48:08.472Z,99991.25
2022-12-08T04:50:35.129Z,99987.75
2022-12-08T04:53:04.668Z,99989.44
2022-12-08T04:55:31.274Z,99986.81
2022-12-08T04:57:57.923Z,99992.00
2022-12-08T05:00:24.658Z,99991.09
2022-12-08T05:02:51.642Z,99990.22
2022-12-08T05:05:18.323Z,99991.94
2022-12-08T05:07:45.022Z,99990.19
2022-12-08T05:10:11.748Z,99986.78
2022-12-08T05:12:38.431Z,99986.88
2022-12-08T05:15:05.726Z,99979.28
2022-12-08T05:17:32.381Z,99991.38
2022-12-08T05:19:58.982Z,99991.38
2022-12-08T05:22:25.588Z,99993.91
2022-12-08T05:24:52.189Z,99984.44
2022-12-08T05:27:18.829Z,99997.25
2022-12-08T05:29:45.550Z,99996.41
2022-12-08T05:32:12.182Z,99993.84
2022-12-08T05:34:38.871Z,99995.53
2022-12-08T05:37:05.471Z,100000.75
2022-12-08T05:39:32.079Z,99997.31
2022-12-08T05:41:59.667Z,100005.03
2022-12-08T05:44:27.026Z,100009.28
2022-12-08T05:46:53.680Z,100000.69
2022-12-08T05:49:20.380Z,100001.53
2022-12-08T05:51:47.045Z,100004.09
2022-12-08T05:54:14.283Z,100004.06
2022-12-08T05:56:40.888Z,100010.03
2022-12-08T05:59:09.946Z,100016.00
2022-12-08T06:01:36.850Z,100015.16
2022-12-08T06:04:04.402Z,100016.84
2022-12-08T06:06:31.958Z,100017.78
2022-12-08T06:08:58.599Z,100016.00
2022-12-08T06:11:29.125Z,100015.91
2022-12-08T06:13:57.166Z,100019.28
2022-12-08T06:16:26.375Z,100021.84
2022-12-08T06:18:53.726Z,100027.00
2022-12-08T06:21:20.681Z,100027.84
2022-12-08T06:23:52.413Z,100033.06
2022-12-08T06:26:20.191Z,100027.94
2022-12-08T06:28:46.957Z,100030.66
2022-12-08T06:31:19.329Z,100032.38
2022-12-08T06:33:46.984Z,100032.38
2022-12-08T06:36:16.391Z,100034.94
2022-12-08T06:38:44.047Z,100030.66
2022-12-08T06:41:11.317Z,100034.06
2022-12-08T06:43:38.562Z,100027.16
2022-12-08T06:46:08.313Z,100035.81
2022-12-08T06:48:35.120Z,100040.91
2022-12-08T06:51:14.257Z,100043.56
2022-12-08T06:53:41.951Z,100042.78
2022-12-08T06:56:09.532Z,100047.94
2022-12-08T06:58:36.475Z,100041.91
2022-12-08T07:01:11.224Z,100043.69
2022-12-08T07:03:39.470Z,100043.78
2022-12-08T07:06:06.583Z,100042.16
2022-12-08T07:08:34.567Z,100055.13
2022-12-08T07:11:10.172Z,100049.97
2022-12-08T07:13:37.374Z,100059.28
2022-12-08T07:16:09.396Z,100048.78
2022-12-08T07:18:36.737Z,100043.56
2022-12-08T07:21:15.104Z,100052.91
2022-12-08T07:23:42.546Z,100058.00
2022-12-08T07:26:12.348Z,100054.53
2022-12-08T07:28:40.360Z,100050.16
2022-12-08T07:31:08.632Z,100048.38
2022-12-08T07:33:36.229Z,100063.75
2022-12-08T07:36:05.090Z,100050.78
2022-12-08T07:38:31.887Z,100047.31
2022-12-08T07:40:59.706Z,100048.97
2022-12-08T07:43:26.457Z,100055.81
2022-12-08T07:45:53.265Z,100052.31
2022-12-08T07:48:20.065Z,100068.59
2022-12-08T07:50:47.570Z,100062.59
2022-12-08T07:53:14.733Z,100062.50
2022-12-08T07:55:42.765Z,100059.94
2022-12-08T07:58:10.050Z,100063.31
2022-12-08T08:00:37.199Z,100064.22
2022-12-08T08:03:04.082Z,100063.31
2022-12-08T08:05:30.863Z,100060.75
2022-12-08T08:07:57.559Z,100064.22
2022-12-08T08:10:24.297Z,100068.53
2022-12-08T08:12:51.549Z,100060.78
2022-12-08T08:15:19.440Z,100052.22
2022-12-08T08:17:51.506Z,100065.16
2022-12-08T08:20:19.538Z,100067.75
2022-12-08T08:22:47.930Z,100058.31
2022-12-08T08:25:15.682Z,100061.81
2022-12-08T08:27:42.744Z,100062.69
2022-12-08T08:30:15.265Z,100067.94
2022-12-08T08:32:44.986Z,100061.09
2022-12-08T08:35:11.862Z,100058.59
2022-12-08T08:37:38.474Z,100062.13
2022-12-08T08:40:06.053Z,100062.19
2022-12-08T08:42:33.022Z,100056.25
2022-12-08T08:44:59.693Z,100057.19
2022-12-08T08:47:26.688Z,100057.22
2022-12-08T08:49:53.302Z,100059.00
2022-12-08T08:52:19.893Z,100059.88
2022-12-08T08:54:46.546Z,100062.53
2022-12-08T08:57:13.158Z,100061.81
2022-12-08T08:59:39.786Z,100061.06
2022-12-08T09:02:06.955Z,100039.66
2022-12-08T09:04:33.652Z,100049.28
2022-12-08T09:07:00.492Z,100046.78
2022-12-08T09:09:27.087Z,100050.28
2022-12-08T09:11:55.294Z,100052.16
2022-12-08T09:14:23.171Z,100055.69
2022-12-08T09:16:49.816Z,100051.56
2022-12-08T09:19:16.526Z,100059.53
2022-12-08T09:21:43.145Z,100059.66
2022-12-08T09:24:15.950Z,100052.03
2022-12-08T09:26:44.613Z,100062.53
2022-12-08T09:29:12.086Z,100059.19
2022-12-08T09:31:38.774Z,100064.56
2022-12-08T09:34:05.604Z,100063.84
2022-12-08T09:36:32.607Z,100057.84
2022-12-08T09:38:59.301Z,100051.88
2022-12-08T09:41:37.517Z,100048.50
2022-12-08T09:44:28.792Z,100058.97
2022-12-08T09:46:56.233Z,100055.91
2022-12-08T09:49:41.979Z,100061.50
2022-12-08T09:52:21.421Z,100058.47
2022-12-08T09:54:48.185Z,100053.69
2022-12-08T09:57:19.547Z,100050.47
2022-12-08T09:59:52.938Z,100055.81
2022-12-08T10:02:29.903Z,100046.31
2022-12-08T10:04:58.966Z,100051.59
2022-12-08T10:07:45.361Z,100052.56
2022-12-08T10:10:30.111Z,100057.78
2022-12-08T10:13:11.731Z,100050.84
2022-12-08T10:15:50.571Z,100050.69
2022-12-08T10:18:20.572Z,100050.47
2022-12-08T10:20:50.032Z,100053.75
2022-12-08T10:23:27.660Z,100054.56
2022-12-08T10:26:05.429Z,100052.78
2022-12-08T10:28:34.305Z,100060.53
2022-12-08T10:31:01.279Z,100056.22
2022-12-08T10:33:29.555Z,100057.94
2022-12-08T10:35:58.636Z,100052.75
2022-12-08T10:38:33.790Z,100052.72
2022-12-08T10:41:07.248Z,100057.00
2022-12-08T10:43:36.754Z,100061.28
2022-12-08T10:46:25.969Z,100063.00
2022-12-08T10:49:11.122Z,100058.63
2022-12-08T10:51:42.696Z,100062.94
2022-12-08T10:54:33.655Z,100065.50
2022-12-08T10:57:00.286Z,100063.81
2022-12-08T10:59:27.085Z,100066.38
2022-12-08T11:01:56.137Z,100068.97
2022-12-08T11:04:25.298Z,100056.03
2022-12-08T11:06:53.022Z,100068.16
2022-12-08T11:09:19.520Z,100066.50
2022-12-08T11:11:48.214Z,100070.81
2022-12-08T11:14:25.179Z,100073.41
2022-12-08T11:16:54.799Z,100076.91
2022-12-08T11:19:27.686Z,100080.41
2022-12-08T11:21:54.833Z,100084.78
2022-12-08T11:24:24.618Z,100087.38
2022-12-08T11:27:02.859Z,100077.94
2022-12-08T11:29:32.707Z,100081.38
2022-12-08T11:32:12.764Z,100081.44
2022-12-08T11:34:48.105Z,100080.69
2022-12-08T11:37:29.974Z,100081.63
2022-12-08T11:40:06.322Z,100077.34
2022-12-08T11:42:46.208Z,100075.66
2022-12-08T11:45:19.260Z,100076.56
2022-12-08T11:48:13.775Z,100079.19
2022-12-08T11:50:50.721Z,100074.03
2022-12-08T11:53:54.842Z,100083.41
2022-12-08T11:56:32.565Z,100085.88
2022-12-08T11:59:15.464Z,100086.59
2022-12-08T12:01:42.863Z,100081.38
2022-12-08T12:04:35.627Z,100077.88
2022-12-08T12:07:21.649Z,100080.47
2022-12-08T12:10:09.654Z,100081.28
2022-12-08T12:13:01.116Z,100084.72
2022-12-08T12:15:40.101Z,100085.53
2022-12-08T12:18:31.974Z,100083.78
2022-12-08T12:21:06.431Z,100088.06
2022-12-08T12:23:40.290Z,100093.19
2022-12-08T12:26:16.369Z,100091.38
2022-12-08T12:29:02.772Z,100097.41
2022-12-08T12:31:33.708Z,100093.94
2022-12-08T12:34:30.770Z,100093.03
2022-12-08T12:37:05.362Z,100095.59
2022-12-08T12:39:45.774Z,100093.09
2022-12-08T12:42:36.951Z,100101.69
2022-12-08T12:45:18.462Z,100101.69
2022-12-08T12:47:56.629Z,100091.34
2022-12-08T12:50:37.172Z,100106.13
2022-12-08T12:53:26.550Z,100097.47
2022-12-08T12:55:55.095Z,100104.41
2022-12-08T12:58:27.749Z,100104.41
2022-12-08T13:01:17.022Z,100106.13
2022-12-08T13:03:47.399Z,100103.53
2022-12-08T13:06:21.642Z,100104.41
2022-12-08T13:08:55.264Z,100113.88
2022-12-08T13:11:23.489Z,100110.50
2022-12-08T13:13:57.932Z,100108.78
2022-12-08T13:16:28.018Z,100113.16
2022-12-08T13:19:02.365Z,100113.13
2022-12-08T13:21:34.821Z,100119.06
2022-12-08T13:24:10.266Z,100116.53
2022-12-08T13:26:48.167Z,100112.28
2022-12-08T13:29:15.384Z,100111.31
2022-12-08T13:31:50.112Z,100117.28
2022-12-08T13:34:24.872Z,100113.75
2022-12-08T13:37:18.856Z,100114.63
2022-12-08T13:40:09.517Z,100117.13
2022-12-08T13:42:44.193Z,100116.22
2022-12-08T13:48:42.292Z,100122.25
2022-12-08T13:53:28.419Z,100118.75
2022-12-08T13:57:11.520Z,100117.88
2022-12-08T13:59:44.362Z,100121.28
2022-12-08T14:02:20.785Z,100122.13
2022-12-08T14:05:17.384Z,100129.03
2022-12-08T14:07:34.816Z,100125.50
2022-12-08T14:10:03.791Z,100136.69
2022-12-08T14:12:31.677Z,100135.84
2022-12-08T14:15:03.603Z,100130.66
2022-12-08T14:17:30.939Z,100130.53
2022-12-08T14:20:11.397Z,100133.09
2022-12-08T14:22:40.468Z,100133.09
2022-12-08T14:25:13.125Z,100140.81
2022-12-08T14:27:39.866Z,100134.84
2022-12-08T14:30:15.979Z,100135.81
2022-12-08T14:32:49.902Z,100128.13
2022-12-08T14:35:24.254Z,100129.88
2022-12-08T14:37:55.061Z,100138.63
2022-12-08T14:40:25.248Z,100133.53
2022-12-08T14:43:05.062Z,100130.16
2022-12-08T14:45:35.228Z,100130.22
2022-12-08T14:48:20.777Z,100128.53
2022-12-08T14:51:26.851Z,100131.13
2022-12-08T14:53:58.852Z,100135.44
2022-12-08T14:56:53.263Z,100131.13
2022-12-08T14:59:30.713Z,100130.25
2022-12-08T15:02:15.728Z,100130.31
2022-12-08T15:04:45.658Z,100130.38
2022-12-08T15:07:16.189Z,100134.69
2022-12-08T15:09:51.138Z,100127.78
2022-12-08T15:12:27.202Z,100132.16
2022-12-08T15:14:59.859Z,100131.31
2022-12-08T15:17:34.908Z,100139.13
2022-12-08T15:20:03.300Z,100133.09
2022-12-08T15:22:31.306Z,100136.53
2022-12-08T15:24:58.359Z,100139.97
2022-12-08T15:27:25.871Z,100152.00
2022-12-08T15:29:53.193Z,100150.25
2022-12-08T15:32:23.120Z,100152.84
2022-12-08T15:34:50.275Z,100161.41
2022-12-08T15:37:24.816Z,100157.97
2022-12-08T15:39:51.486Z,100155.44
2022-12-08T15:42:18.443Z,100155.44
2022-12-08T15:44:45.045Z,100160.56
2022-12-08T15:47:30.362Z,100153.66
2022-12-08T15:49:56.948Z,100161.47
2022-12-08T15:52:25.105Z,100170.09
2022-12-08T15:54:51.752Z,100158.03
2022-12-08T16:04:14.265Z,100164.09
2022-12-08T16:09:21.065Z,100169.34
2022-12-08T16:12:08.209Z,100175.44
2022-12-08T16:17:23.478Z,100179.00
2022-12-08T16:19:50.170Z,100183.25
2022-12-08T16:25:24.399Z,100176.31
2022-12-08T16:28:36.775Z,100170.16
2022-12-08T16:30:41.356Z,100171.88
2022-12-08T16:33:08.019Z,100168.34
2022-12-08T16:35:34.765Z,100169.16
2022-12-08T16:38:01.475Z,100167.41
2022-12-08T16:40:28.115Z,100169.09
2022-12-08T16:42:54.953Z,100166.56
2022-12-08T16:45:30.831Z,100170.06
2022-12-08T16:48:01.073Z,100175.28
2022-12-08T16:50:33.553Z,100170.16
2022-12-08T16:53:09.091Z,100171.00
2022-12-08T16:55:35.728Z,100164.94
2022-12-08T16:58:04.715Z,100164.03
2022-12-08T17:00:37.385Z,100164.91
2022-12-08T17:03:10.782Z,100166.66
2022-12-08T17:05:41.000Z,100167.50
2022-12-08T17:08:12.518Z,100176.13
2022-12-08T17:10:42.772Z,100172.59
2022-12-08T17:13:13.154Z,100176.06
2022-12-08T17:15:40.142Z,100177.81
2022-12-08T17:18:06.794Z,100181.22
2022-12-08T17:20:36.221Z,100179.44
2022-12-08T17:23:02.872Z,100186.25
2022-12-08T17:25:29.506Z,100183.56
2022-12-08T17:27:56.460Z,100187.78
2022-12-08T17:30:23.138Z,100191.19
2022-12-08T17:32:52.995Z,100182.53
2022-12-08T17:35:21.033Z,100186.00
2022-12-08T17:37:47.805Z,100192.09
2022-12-08T17:40:14.536Z,100190.31
2022-12-08T17:42:42.373Z,100192.00
2022-12-08T17:45:09.471Z,100198.00
2022-12-08T17:47:39.269Z,100197.97
2022-12-08T17:50:07.225Z,100203.03
2022-12-08T17:52:34.142Z,100201.22
2022-12-08T17:55:00.758Z,100208.97
2022-12-08T17:57:27.365Z,100212.34
2022-12-08T17:59:54.104Z,100214.06
2022-12-08T18:02:20.800Z,100210.53
2022-12-08T18:04:47.620Z,100213.09
2022-12-08T18:07:14.351Z,100212.22
2022-12-08T18:09:42.004Z,100217.41
2022-12-08T18:12:08.686Z,100220.84
2022-12-08T18:14:35.306Z,100222.56
2022-12-08T18:17:04.484Z,100220.84
2022-12-08T18:19:31.169Z,100214.81
2022-12-08T18:22:00.911Z,100229.53
2022-12-08T18:24:27.578Z,100230.38
2022-12-08T18:26:55.276Z,100232.22
2022-12-08T18:29:22.790Z,100232.22
2022-12-08T18:31:49.642Z,100228.78
2022-12-08T18:34:18.923Z,100230.66
2022-12-08T18:36:46.109Z,100231.56
2022-12-08T18:39:25.395Z,100225.59
2022-12-08T18:41:53.215Z,100232.56
2022-12-08T18:44:20.136Z,100228.34
2022-12-08T18:46:47.329Z,100234.44
2022-12-08T18:49:16.293Z,100236.13
2022-12-08T18:51:43.513Z,100236.13
2022-12-08T18:54:11.671Z,100228.41
2022-12-08T18:56:38.863Z,100231.88
2022-12-08T18:59:08.264Z,100229.41
2022-12-08T19:01:37.808Z,100231.19
2022-12-08T19:04:27.875Z,100231.13
2022-12-08T19:06:55.646Z,100236.31
2022-12-08T19:09:22.919Z,100236.38
2022-12-08T19:11:49.646Z,100238.16
2022-12-08T19:14:16.355Z,100238.28
2022-12-08T19:16:43.112Z,100237.44
2022-12-08T19:19:09.873Z,100239.16
2022-12-08T19:21:42.862Z,100239.22
2022-12-08T19:24:12.686Z,100246.97
2022-12-08T19:26:39.542Z,100246.97
2022-12-08T19:29:06.139Z,100243.53
2022-12-08T19:31:32.882Z,100241.78
2022-12-08T19:33:59.567Z,100255.53
2022-12-08T19:36:27.668Z,100258.91
2022-12-08T19:39:13.117Z,100258.06
2022-12-08T19:41:58.571Z,100265.06
2022-12-08T19:44:46.148Z,100269.31
2022-12-08T19:47:12.818Z,100269.31
2022-12-08T19:49:39.484Z,100274.50
2022-12-08T19:52:07.069Z,100270.22
2022-12-08T19:54:33.984Z,100275.34
2022-12-08T19:57:01.254Z,100280.59
2022-12-08T19:59:30.080Z,100276.34
2022-12-08T20:01:58.494Z,100281.59
2022-12-08T20:04:27.243Z,100283.38
2022-12-08T20:06:56.196Z,100279.94
2022-12-08T20:09:23.569Z,100286.88
2022-12-08T20:11:50.983Z,100280.00
2022-12-08T20:14:18.595Z,100285.25
2022-12-08T20:16:45.334Z,100296.47
2022-12-08T20:19:12.075Z,100292.19
2022-12-08T20:21:40.184Z,100295.53
2022-12-08T20:24:07.480Z,100299.88
2022-12-08T20:26:34.289Z,100298.16
2022-12-08T20:29:00.962Z,100305.13
2022-12-08T20:31:29.664Z,100307.72
2022-12-08T20:33:56.551Z,100309.44
2022-12-08T20:36:28.184Z,100307.69
2022-12-08T20:38:55.250Z,100305.13
2022-12-08T20:41:23.801Z,100305.19
2022-12-08T20:43:50.952Z,100306.13
2022-12-08T20:46:19.172Z,100303.63
2022-12-08T20:48:46.307Z,100306.25
2022-12-08T20:51:18.882Z,100310.56
2022-12-08T20:54:00.165Z,100313.97
2022-12-08T20:56:27.097Z,100318.28
2022-12-08T20:58:54.556Z,100316.50
2022-12-08T21:01:23.446Z,100309.63
2022-12-08T21:03:51.087Z,100311.34
2022-12-08T21:06:22.577Z,100320.94
2022-12-08T21:08:50.297Z,100320.00
2022-12-08T21:11:17.314Z,100322.56
2022-12-08T21:13:44.603Z,100331.06
2022-12-08T21:16:13.345Z,100328.34
2022-12-08T21:18:40.346Z,100327.41
2022-12-08T21:21:10.997Z,100327.41
2022-12-08T21:23:38.077Z,100324.88
2022-12-08T21:26:15.081Z,100338.75
2022-12-08T21:28:42.596Z,100331.75
2022-12-08T21:31:11.636Z,100339.50
2022-12-08T21:33:38.850Z,100330.00
2022-12-08T21:36:09.530Z,100329.13
2022-12-08T21:38:37.513Z,100335.25
2022-12-08T21:41:06.622Z,100333.59
2022-12-08T21:43:33.529Z,100328.41
2022-12-08T21:46:00.309Z,100325.81
2022-12-08T21:48:27.876Z,100331.00
2022-12-08T21:50:55.624Z,100325.88
2022-12-08T21:53:25.414Z,100325.88
2022-12-08T21:55:52.269Z,100332.84
2022-12-08T21:58:19.143Z,100338.03
2022-12-08T22:00:45.834Z,100338.78
2022-12-08T22:03:14.849Z,100346.44
2022-12-08T22:05:42.226Z,100344.50
2022-12-08T22:08:09.121Z,100337.59
2022-12-08T22:10:36.007Z,100335.03
2022-12-08T22:13:02.702Z,100335.91
2022-12-08T22:15:29.958Z,100341.91
2022-12-08T22:17:56.965Z,100340.16
2022-12-08T22:20:23.788Z,100338.47
2022-12-08T22:22:50.495Z,100332.38
2022-12-08T22:25:17.314Z,100335.81
2022-12-08T22:27:44.023Z,100339.25
2022-12-08T22:30:11.907Z,100332.31
2022-12-08T22:32:39.235Z,100326.19
2022-12-08T22:35:06.213Z,100341.69
2022-12-08T22:37:33.204Z,100338.16
2022-12-08T22:39:59.981Z,100348.44
2022-12-08T22:42:27.384Z,100342.28
2022-12-08T22:44:53.996Z,100341.34
2022-12-08T22:47:20.706Z,100350.75
2022-12-08T22:49:47.366Z,100349.78
2022-12-08T22:52:14.108Z,100348.88
2022-12-08T22:54:40.971Z,100353.97
2022-12-08T22:57:07.745Z,100348.81
2022-12-08T22:59:34.660Z,100358.19
2022-12-08T23:02:01.625Z,100356.41
2022-12-08T23:04:28.424Z,100348.72
2022-12-08T23:06:55.209Z,100351.31
2022-12-08T23:09:22.159Z,100349.66
2022-12-08T23:11:48.849Z,100353.13
2022-12-08T23:14:15.727Z,100352.31
2022-12-08T23:16:42.660Z,100349.81
2022-12-08T23:19:09.851Z,100356.78
2022-12-08T23:21:36.550Z,100367.13
2022-12-08T23:24:04.080Z,100353.34
2022-12-08T23:26:32.542Z,100358.56
2022-12-08T23:28:59.607Z,100353.41
2022-12-08T23:31:27.259Z,100355.16
2022-12-08T23:33:54.363Z,100358.66
2022-12-08T23:36:22.695Z,100360.38
2022-12-08T23:38:49.528Z,100358.66
2022-12-08T23:41:16.855Z,100359.53
2022-12-08T23:43:48.862Z,100355.22
2022-12-08T23:46:17.818Z,100352.63
2022-12-08T23:48:45.150Z,100356.00
2022-12-08T23:51:12.127Z,100362.81
2022-12-08T23:53:39.099Z,100359.34
2022-12-08T23:56:08.992Z,100353.28
2022-12-08T23:58:36.802Z,100358.50
